createdAt,value
2017-03-03T13:14:30.448Z,1001
2017-03-03T13:17:03.404Z,1001
2017-03-03T13:19:35.882Z,1000.9
2017-03-03T13:22:08.392Z,1000.9
2017-03-03T13:24:41.317Z,1000.9
2017-03-03T13:27:13.814Z,1000.9
2017-03-03T13:29:46.291Z,1000.8
2017-03-03T13:32:19.201Z,1000.8
2017-03-03T13:34:51.688Z,1000.8
2017-03-03T13:37:24.153Z,1000.8
2017-03-03T13:39:56.671Z,1000.7
2017-03-03T13:42:29.151Z,1000.6
2017-03-03T13:45:02.079Z,1000.6
2017-03-03T13:47:35.008Z,1000.6
2017-03-03T13:50:07.508Z,1000.6
2017-03-03T13:52:39.973Z,1000.5
2017-03-03T13:55:13.756Z,1000.5
2017-03-03T13:57:46.677Z,1000.5
2017-03-03T14:00:19.164Z,1000.5
2017-03-03T14:02:51.649Z,1000.5
2017-03-03T14:05:24.573Z,1000.5
2017-03-03T14:07:57.064Z,1000.5
2017-03-03T14:10:29.533Z,1000.5
2017-03-03T14:13:02.495Z,1000.4
2017-03-03T14:15:34.989Z,1000.3
2017-03-03T14:18:07.496Z,1000.3
2017-03-03T14:20:39.983Z,1000.2
2017-03-03T14:23:12.474Z,1000.3
2017-03-03T14:25:45.382Z,1000.2
2017-03-03T14:28:17.882Z,1000.2
2017-03-03T14:30:50.799Z,1000.2
2017-03-03T14:33:23.712Z,1000.1
2017-03-03T14:35:56.184Z,1000.1
2017-03-03T14:38:28.660Z,1000
2017-03-03T14:41:01.149Z,1000.1
2017-03-03T14:43:34.508Z,1000
2017-03-03T14:46:07.463Z,1000
2017-03-03T14:48:39.960Z,1000
2017-03-03T14:51:12.884Z,1000
2017-03-03T14:53:45.360Z,999.9
2017-03-03T14:56:17.856Z,999.8
2017-03-03T14:58:50.354Z,999.8
2017-03-03T15:01:22.820Z,999.7
2017-03-03T15:03:55.736Z,999.7
2017-03-03T15:06:28.218Z,999.7
2017-03-03T15:09:01.130Z,999.7
2017-03-03T15:11:33.628Z,999.6
2017-03-03T15:14:06.553Z,999.6
2017-03-03T15:16:39.078Z,999.6
2017-03-03T15:19:11.992Z,999.5
2017-03-03T15:21:44.498Z,999.5
2017-03-03T15:24:16.974Z,999.5
2017-03-03T15:26:49.878Z,999.5
2017-03-03T15:29:22.345Z,999.4
2017-03-03T15:31:55.268Z,999.5
2017-03-03T15:34:27.734Z,999.5
2017-03-03T15:37:00.225Z,999.5
2017-03-03T15:39:32.719Z,999.4
2017-03-03T15:42:05.217Z,999.4
2017-03-03T15:44:37.717Z,999.4
2017-03-03T15:47:10.190Z,999.4
2017-03-03T15:49:42.678Z,999.3
2017-03-03T15:52:15.151Z,999.4
2017-03-03T15:54:47.690Z,999.4
2017-03-03T15:57:20.164Z,999.4
2017-03-03T15:59:52.648Z,999.3
2017-03-03T16:02:25.127Z,999.3
2017-03-03T16:04:58.044Z,999.3
2017-03-03T16:07:31.601Z,999.3
2017-03-03T16:10:04.515Z,999.3
2017-03-03T16:12:37.019Z,999.2
2017-03-03T16:15:09.931Z,999.1
2017-03-03T16:17:42.821Z,999.1
2017-03-03T16:20:15.337Z,999.1
2017-03-03T16:22:47.817Z,999.1
2017-03-03T16:25:20.308Z,999
2017-03-03T16:27:52.803Z,999.1
2017-03-03T16:30:25.296Z,999.1
2017-03-03T16:32:57.802Z,999
2017-03-03T16:35:30.304Z,999
2017-03-03T16:38:02.786Z,999
2017-03-03T16:40:36.111Z,999
2017-03-03T16:43:09.046Z,999
2017-03-03T16:45:41.762Z,999
2017-03-03T16:48:14.667Z,998.9
2017-03-03T16:50:47.172Z,998.9
2017-03-03T16:53:19.652Z,998.9
2017-03-03T16:55:52.125Z,998.9
2017-03-03T16:58:24.638Z,998.9
2017-03-03T17:00:57.145Z,998.9
2017-03-03T17:03:29.645Z,998.8
2017-03-03T17:06:02.546Z,998.8
2017-03-03T17:08:35.045Z,998.8
2017-03-03T17:11:07.526Z,998.8
2017-03-03T17:13:40.019Z,998.7
2017-03-03T17:16:12.539Z,998.7
2017-03-03T17:18:45.032Z,998.7
2017-03-03T17:21:17.549Z,998.7
2017-03-03T17:23:50.055Z,998.7
2017-03-03T17:26:22.551Z,998.7
2017-03-03T17:28:55.046Z,998.7
2017-03-03T17:31:27.536Z,998.7
2017-03-03T17:34:00.452Z,998.6
2017-03-03T17:36:32.949Z,998.6
2017-03-03T17:39:05.433Z,998.6
2017-03-03T17:41:37.914Z,998.5
2017-03-03T17:44:10.401Z,998.5
2017-03-03T17:46:42.902Z,998.5
2017-03-03T17:49:15.377Z,998.5
2017-03-03T17:51:47.885Z,998.4
2017-03-03T17:54:20.390Z,998.3
2017-03-03T17:56:52.885Z,998.3
2017-03-03T17:59:25.834Z,998.2
2017-03-03T18:01:58.307Z,998.2
2017-03-03T18:04:31.231Z,998.2
2017-03-03T18:07:03.704Z,998.2
2017-03-03T18:09:36.182Z,998.2
2017-03-03T18:12:08.653Z,998.1
2017-03-03T18:14:41.134Z,998
2017-03-03T18:17:13.644Z,998
2017-03-03T18:19:46.644Z,998
2017-03-03T18:22:19.555Z,997.9
2017-03-03T18:24:52.037Z,997.8
2017-03-03T18:27:24.960Z,997.7
2017-03-03T18:29:57.459Z,997.6
2017-03-03T18:32:29.930Z,997.5
2017-03-03T18:35:02.449Z,997.4
2017-03-03T18:37:34.931Z,997.3
2017-03-03T18:40:07.404Z,997.5
2017-03-03T18:42:39.923Z,997.4
2017-03-03T18:45:12.841Z,997.4
2017-03-03T18:47:45.339Z,997.3
2017-03-03T18:50:17.834Z,997.3
2017-03-03T18:52:50.319Z,997.3
2017-03-03T18:55:22.817Z,997.3
2017-03-03T18:57:56.171Z,997.3
2017-03-03T19:00:28.644Z,997.4
2017-03-03T19:03:01.117Z,997.3
2017-03-03T19:05:34.479Z,997.3
2017-03-03T19:08:06.987Z,997.3
2017-03-03T19:10:40.752Z,997.2
2017-03-03T19:13:13.657Z,997.2
2017-03-03T19:15:46.606Z,997.2
2017-03-03T19:18:19.112Z,997.1
2017-03-03T19:20:51.603Z,997.1
2017-03-03T19:23:24.075Z,997
2017-03-03T19:25:56.565Z,996.9
2017-03-03T19:28:29.043Z,996.8
2017-03-03T19:31:01.989Z,996.8
2017-03-03T19:33:34.904Z,996.9
2017-03-03T19:36:07.434Z,996.9
2017-03-03T19:38:39.924Z,996.8
2017-03-03T19:41:12.411Z,996.7
2017-03-03T19:43:44.900Z,996.7
2017-03-03T19:46:17.396Z,996.6
2017-03-03T19:48:49.859Z,996.6
2017-03-03T19:51:22.360Z,996.5
2017-03-03T19:53:54.854Z,996.5
2017-03-03T19:56:27.758Z,996.5
2017-03-03T19:59:00.244Z,996.4
2017-03-03T20:01:33.149Z,996.4
2017-03-03T20:04:05.631Z,996.4
2017-03-03T20:06:38.135Z,996.4
2017-03-03T20:09:10.648Z,996.4
2017-03-03T20:11:43.140Z,996.3
2017-03-03T20:14:16.057Z,996.4
2017-03-03T20:16:49.004Z,996.3
2017-03-03T20:19:21.472Z,996.4
2017-03-03T20:21:53.971Z,996.3
2017-03-03T20:24:26.454Z,996.3
2017-03-03T20:26:58.944Z,996.3
2017-03-03T20:29:31.428Z,996.3
2017-03-03T20:32:03.898Z,996.2
2017-03-03T20:34:36.387Z,996.2
2017-03-03T20:37:09.065Z,996.1
2017-03-03T20:39:41.635Z,996
2017-03-03T20:42:14.544Z,996
2017-03-03T20:44:47.021Z,995.9
2017-03-03T20:47:19.928Z,995.8
2017-03-03T20:49:53.451Z,995.8
2017-03-03T20:52:25.930Z,995.8
2017-03-03T20:54:58.407Z,995.8
2017-03-03T20:57:30.895Z,995.7
2017-03-03T21:00:03.374Z,995.6
2017-03-03T21:02:35.856Z,995.5
2017-03-03T21:05:08.903Z,995.5
2017-03-03T21:07:41.817Z,995.5
2017-03-03T21:10:14.320Z,995.4
2017-03-03T21:12:47.238Z,995.4
2017-03-03T21:15:19.734Z,995.5
2017-03-03T21:17:52.224Z,995.4
2017-03-03T21:20:25.136Z,995.3
2017-03-03T21:22:58.049Z,995.3
2017-03-03T21:25:30.967Z,995.2
2017-03-03T21:28:03.854Z,995.2
2017-03-03T21:30:36.352Z,995.2
2017-03-03T21:33:08.882Z,995.2
2017-03-03T21:35:41.347Z,995.3
2017-03-03T21:38:14.017Z,995.3
2017-03-03T21:40:47.355Z,995.2
2017-03-03T21:43:20.279Z,995.2
2017-03-03T21:45:52.773Z,995.1
2017-03-03T21:48:25.698Z,995
2017-03-03T21:50:58.189Z,995
2017-03-03T21:53:31.115Z,995
2017-03-03T21:56:03.908Z,995
2017-03-03T21:58:36.408Z,995
2017-03-03T22:01:08.893Z,994.9
2017-03-03T22:03:41.809Z,994.8
2017-03-03T22:06:14.738Z,994.8
2017-03-03T22:08:47.222Z,994.8
2017-03-03T22:11:20.137Z,994.8
2017-03-03T22:13:52.666Z,994.8
2017-03-03T22:16:25.156Z,994.7
2017-03-03T22:18:57.652Z,994.7
2017-03-03T22:21:30.164Z,994.8
2017-03-03T22:24:03.064Z,994.8
2017-03-03T22:26:35.554Z,994.7
2017-03-03T22:29:08.046Z,994.6
2017-03-03T22:31:40.943Z,994.6
2017-03-03T22:34:13.444Z,994.7
2017-03-03T22:36:45.917Z,994.6
2017-03-03T22:39:18.397Z,994.5
2017-03-03T22:41:51.939Z,994.4
2017-03-03T22:44:24.459Z,994.4
2017-03-03T22:46:56.924Z,994.5
2017-03-03T22:49:29.416Z,994.5
2017-03-03T22:52:01.944Z,994.5
2017-03-03T22:54:34.450Z,994.5
2017-03-03T22:57:06.930Z,994.5
2017-03-03T22:59:39.826Z,994.5
2017-03-03T23:02:12.308Z,994.4
2017-03-03T23:04:45.205Z,994.4
2017-03-03T23:07:17.693Z,994.3
2017-03-03T23:09:50.191Z,994.3
2017-03-03T23:12:22.676Z,994.2
2017-03-03T23:14:55.608Z,994.2
2017-03-03T23:17:28.090Z,994.3
2017-03-03T23:20:00.581Z,994.3
2017-03-03T23:22:33.505Z,994.4
2017-03-03T23:25:05.991Z,994.3
2017-03-03T23:27:38.908Z,994.4
2017-03-03T23:30:11.404Z,994.4
2017-03-03T23:32:43.913Z,994.4
2017-03-03T23:35:16.384Z,994.4
2017-03-03T23:37:48.873Z,994.3
2017-03-03T23:40:21.779Z,994.3
2017-03-03T23:42:54.283Z,994.3
2017-03-03T23:45:26.763Z,994.2
2017-03-03T23:47:59.239Z,994.3
2017-03-03T23:50:31.727Z,994.2
2017-03-03T23:53:04.228Z,994.2
2017-03-03T23:55:36.706Z,994.2
2017-03-03T23:58:09.185Z,994.2
